sensor_id;sensor_type;location;lat;lon;timestamp;P1;durP1;ratioP1;P2;durP2;ratioP2
20480;SDS011;10399;50.754;3.366;2023-06-04T00:01:22;6.22;;;2.97;;
20480;SDS011;10399;50.754;3.366;2023-06-04T00:03:49;9.15;;;2.45;;
20480;SDS011;10399;50.754;3.366;2023-06-04T00:06:17;6.05;;;2.78;;
20480;SDS011;10399;50.754;3.366;2023-06-04T00:08:44;6.30;;;2.28;;
20480;SDS011;10399;50.754;3.366;2023-06-04T00:11:11;12.13;;;3.30;;
20480;SDS011;10399;50.754;3.366;2023-06-04T00:13:38;10.02;;;3.03;;
20480;SDS011;10399;50.754;3.366;2023-06-04T00:16:05;8.68;;;2.97;;
20480;SDS011;10399;50.754;3.366;2023-06-04T00:18:32;7.82;;;2.67;;
20480;SDS011;10399;50.754;3.366;2023-06-04T00:20:59;5.90;;;2.85;;
20480;SDS011;10399;50.754;3.366;2023-06-04T00:23:26;9.40;;;2.70;;
20480;SDS011;10399;50.754;3.366;2023-06-04T00:25:53;7.82;;;2.60;;
20480;SDS011;10399;50.754;3.366;2023-06-04T00:28:21;7.65;;;2.78;;
20480;SDS011;10399;50.754;3.366;2023-06-04T00:30:48;6.25;;;2.60;;
20480;SDS011;10399;50.754;3.366;2023-06-04T00:33:15;8.05;;;2.30;;
20480;SDS011;10399;50.754;3.366;2023-06-04T00:35:42;7.15;;;2.35;;
20480;SDS011;10399;50.754;3.366;2023-06-04T00:38:09;6.72;;;2.90;;
20480;SDS011;10399;50.754;3.366;2023-06-04T00:40:36;6.97;;;2.92;;
20480;SDS011;10399;50.754;3.366;2023-06-04T00:43:03;8.68;;;2.90;;
20480;SDS011;10399;50.754;3.366;2023-06-04T00:45:31;12.77;;;2.72;;
20480;SDS011;10399;50.754;3.366;2023-06-04T00:47:58;9.23;;;2.85;;
20480;SDS011;10399;50.754;3.366;2023-06-04T00:50:25;6.40;;;2.78;;
20480;SDS011;10399;50.754;3.366;2023-06-04T00:52:52;8.00;;;2.70;;
20480;SDS011;10399;50.754;3.366;2023-06-04T00:55:21;8.50;;;2.72;;
20480;SDS011;10399;50.754;3.366;2023-06-04T00:57:48;9.00;;;2.83;;
20480;SDS011;10399;50.754;3.366;2023-06-04T01:00:16;7.50;;;2.67;;
20480;SDS011;10399;50.754;3.366;2023-06-04T01:02:43;9.25;;;2.85;;
20480;SDS011;10399;50.754;3.366;2023-06-04T01:05:22;12.98;;;2.60;;
20480;SDS011;10399;50.754;3.366;2023-06-04T01:07:57;8.88;;;2.90;;
20480;SDS011;10399;50.754;3.366;2023-06-04T01:10:25;8.45;;;2.67;;
20480;SDS011;10399;50.754;3.366;2023-06-04T01:12:52;8.57;;;3.10;;
20480;SDS011;10399;50.754;3.366;2023-06-04T01:15:19;8.50;;;2.92;;
20480;SDS011;10399;50.754;3.366;2023-06-04T01:17:48;4.60;;;2.90;;
20480;SDS011;10399;50.754;3.366;2023-06-04T01:20:25;9.95;;;2.85;;
20480;SDS011;10399;50.754;3.366;2023-06-04T01:27:57;7.75;;;2.83;;
20480;SDS011;10399;50.754;3.366;2023-06-04T01:30:26;9.40;;;3.08;;
20480;SDS011;10399;50.754;3.366;2023-06-04T01:32:59;4.93;;;2.85;;
20480;SDS011;10399;50.754;3.366;2023-06-04T01:35:27;9.05;;;3.33;;
20480;SDS011;10399;50.754;3.366;2023-06-04T01:37:57;6.88;;;3.17;;
20480;SDS011;10399;50.754;3.366;2023-06-04T01:40:25;10.63;;;3.22;;
20480;SDS011;10399;50.754;3.366;2023-06-04T01:42:52;9.32;;;3.75;;
20480;SDS011;10399;50.754;3.366;2023-06-04T01:45:20;8.73;;;3.72;;
20480;SDS011;10399;50.754;3.366;2023-06-04T01:47:49;8.07;;;3.13;;
20480;SDS011;10399;50.754;3.366;2023-06-04T01:50:16;5.25;;;2.92;;
20480;SDS011;10399;50.754;3.366;2023-06-04T01:52:43;6.60;;;3.20;;
20480;SDS011;10399;50.754;3.366;2023-06-04T01:55:11;6.93;;;3.10;;
20480;SDS011;10399;50.754;3.366;2023-06-04T01:57:41;10.50;;;3.40;;
20480;SDS011;10399;50.754;3.366;2023-06-04T02:00:10;13.25;;;3.13;;
20480;SDS011;10399;50.754;3.366;2023-06-04T02:02:38;6.18;;;2.72;;
20480;SDS011;10399;50.754;3.366;2023-06-04T02:05:10;12.18;;;3.60;;
20480;SDS011;10399;50.754;3.366;2023-06-04T02:07:38;10.88;;;4.07;;
20480;SDS011;10399;50.754;3.366;2023-06-04T02:10:07;12.60;;;3.30;;
20480;SDS011;10399;50.754;3.366;2023-06-04T02:12:36;7.93;;;2.92;;
20480;SDS011;10399;50.754;3.366;2023-06-04T02:15:05;11.82;;;3.47;;
20480;SDS011;10399;50.754;3.366;2023-06-04T02:17:33;8.50;;;3.25;;
20480;SDS011;10399;50.754;3.366;2023-06-04T02:20:04;8.43;;;3.33;;
20480;SDS011;10399;50.754;3.366;2023-06-04T02:22:32;8.40;;;3.50;;
20480;SDS011;10399;50.754;3.366;2023-06-04T02:24:59;7.63;;;3.22;;
20480;SDS011;10399;50.754;3.366;2023-06-04T02:27:27;5.05;;;2.95;;
20480;SDS011;10399;50.754;3.366;2023-06-04T02:29:54;14.73;;;3.53;;
20480;SDS011;10399;50.754;3.366;2023-06-04T02:32:21;10.70;;;3.70;;
20480;SDS011;10399;50.754;3.366;2023-06-04T02:34:48;7.82;;;3.58;;
20480;SDS011;10399;50.754;3.366;2023-06-04T02:37:16;6.55;;;3.10;;
20480;SDS011;10399;50.754;3.366;2023-06-04T02:39:43;6.03;;;3.22;;
20480;SDS011;10399;50.754;3.366;2023-06-04T02:42:10;7.20;;;3.53;;
20480;SDS011;10399;50.754;3.366;2023-06-04T02:44:37;7.43;;;3.53;;
20480;SDS011;10399;50.754;3.366;2023-06-04T02:47:04;15.45;;;3.47;;
20480;SDS011;10399;50.754;3.366;2023-06-04T02:49:32;9.15;;;3.25;;
20480;SDS011;10399;50.754;3.366;2023-06-04T02:51:59;6.43;;;2.95;;
20480;SDS011;10399;50.754;3.366;2023-06-04T02:54:27;7.45;;;3.60;;
20480;SDS011;10399;50.754;3.366;2023-06-04T02:56:54;6.35;;;3.25;;
20480;SDS011;10399;50.754;3.366;2023-06-04T02:59:21;7.82;;;3.42;;
20480;SDS011;10399;50.754;3.366;2023-06-04T03:01:48;6.70;;;3.58;;
20480;SDS011;10399;50.754;3.366;2023-06-04T03:04:15;10.30;;;3.50;;
20480;SDS011;10399;50.754;3.366;2023-06-04T03:06:42;9.43;;;3.40;;
20480;SDS011;10399;50.754;3.366;2023-06-04T03:09:11;7.63;;;3.47;;
20480;SDS011;10399;50.754;3.366;2023-06-04T03:11:39;9.32;;;3.20;;
20480;SDS011;10399;50.754;3.366;2023-06-04T03:14:06;10.45;;;3.53;;
20480;SDS011;10399;50.754;3.366;2023-06-04T03:16:33;6.35;;;4.10;;
20480;SDS011;10399;50.754;3.366;2023-06-04T03:19:00;9.80;;;3.60;;
20480;SDS011;10399;50.754;3.366;2023-06-04T03:21:27;6.38;;;3.47;;
20480;SDS011;10399;50.754;3.366;2023-06-04T03:23:57;8.90;;;3.35;;
20480;SDS011;10399;50.754;3.366;2023-06-04T03:26:24;6.03;;;3.55;;
20480;SDS011;10399;50.754;3.366;2023-06-04T03:28:51;8.25;;;3.30;;
20480;SDS011;10399;50.754;3.366;2023-06-04T03:31:18;7.35;;;3.50;;
20480;SDS011;10399;50.754;3.366;2023-06-04T03:33:45;5.55;;;3.22;;
20480;SDS011;10399;50.754;3.366;2023-06-04T03:36:12;7.45;;;3.47;;
20480;SDS011;10399;50.754;3.366;2023-06-04T03:38:39;7.00;;;3.60;;
20480;SDS011;10399;50.754;3.366;2023-06-04T03:41:06;6.57;;;3.40;;
20480;SDS011;10399;50.754;3.366;2023-06-04T03:43:34;7.25;;;3.28;;
20480;SDS011;10399;50.754;3.366;2023-06-04T03:46:01;4.88;;;3.00;;
20480;SDS011;10399;50.754;3.366;2023-06-04T03:48:28;9.40;;;3.70;;
20480;SDS011;10399;50.754;3.366;2023-06-04T03:50:55;10.95;;;3.88;;
20480;SDS011;10399;50.754;3.366;2023-06-04T03:53:22;9.07;;;3.53;;
20480;SDS011;10399;50.754;3.366;2023-06-04T03:55:48;7.45;;;3.60;;
20480;SDS011;10399;50.754;3.366;2023-06-04T03:58:15;9.85;;;3.50;;
20480;SDS011;10399;50.754;3.366;2023-06-04T04:00:42;10.73;;;3.97;;
20480;SDS011;10399;50.754;3.366;2023-06-04T04:03:09;7.80;;;3.58;;
20480;SDS011;10399;50.754;3.366;2023-06-04T04:05:37;6.53;;;3.53;;
20480;SDS011;10399;50.754;3.366;2023-06-04T04:08:04;9.23;;;3.35;;
20480;SDS011;10399;50.754;3.366;2023-06-04T04:10:32;6.90;;;3.42;;
20480;SDS011;10399;50.754;3.366;2023-06-04T04:12:59;8.77;;;3.45;;
20480;SDS011;10399;50.754;3.366;2023-06-04T04:15:26;7.80;;;3.33;;
20480;SDS011;10399;50.754;3.366;2023-06-04T04:17:54;8.73;;;3.50;;
20480;SDS011;10399;50.754;3.366;2023-06-04T04:20:22;5.30;;;3.38;;
20480;SDS011;10399;50.754;3.366;2023-06-04T04:22:49;6.75;;;3.38;;
20480;SDS011;10399;50.754;3.366;2023-06-04T04:25:17;5.57;;;3.72;;
20480;SDS011;10399;50.754;3.366;2023-06-04T04:27:44;6.72;;;3.17;;
20480;SDS011;10399;50.754;3.366;2023-06-04T04:30:11;9.00;;;3.33;;
20480;SDS011;10399;50.754;3.366;2023-06-04T04:32:40;7.85;;;3.00;;
20480;SDS011;10399;50.754;3.366;2023-06-04T04:35:15;7.28;;;3.65;;
20480;SDS011;10399;50.754;3.366;2023-06-04T04:37:44;8.15;;;3.30;;
20480;SDS011;10399;50.754;3.366;2023-06-04T04:40:12;6.00;;;3.35;;
20480;SDS011;10399;50.754;3.366;2023-06-04T04:42:41;14.00;;;3.55;;
20480;SDS011;10399;50.754;3.366;2023-06-04T04:45:08;5.85;;;3.08;;
20480;SDS011;10399;50.754;3.366;2023-06-04T04:47:36;7.50;;;2.92;;
20480;SDS011;10399;50.754;3.366;2023-06-04T04:50:04;7.72;;;2.80;;
20480;SDS011;10399;50.754;3.366;2023-06-04T04:52:32;6.22;;;3.35;;
20480;SDS011;10399;50.754;3.366;2023-06-04T04:54:59;4.90;;;3.33;;
20480;SDS011;10399;50.754;3.366;2023-06-04T04:57:26;8.48;;;3.78;;
20480;SDS011;10399;50.754;3.366;2023-06-04T04:59:53;5.07;;;2.90;;
20480;SDS011;10399;50.754;3.366;2023-06-04T05:02:20;5.40;;;2.75;;
20480;SDS011;10399;50.754;3.366;2023-06-04T05:04:47;9.00;;;3.33;;
20480;SDS011;10399;50.754;3.366;2023-06-04T05:07:14;6.90;;;2.92;;
20480;SDS011;10399;50.754;3.366;2023-06-04T05:09:41;4.47;;;2.95;;
20480;SDS011;10399;50.754;3.366;2023-06-04T05:12:08;5.20;;;2.90;;
20480;SDS011;10399;50.754;3.366;2023-06-04T05:14:35;8.27;;;3.13;;
20480;SDS011;10399;50.754;3.366;2023-06-04T05:17:03;6.57;;;3.05;;
20480;SDS011;10399;50.754;3.366;2023-06-04T05:19:30;6.53;;;3.28;;
20480;SDS011;10399;50.754;3.366;2023-06-04T05:21:59;10.32;;;2.90;;
20480;SDS011;10399;50.754;3.366;2023-06-04T05:24:26;5.03;;;3.13;;
20480;SDS011;10399;50.754;3.366;2023-06-04T05:26:55;9.50;;;3.13;;
20480;SDS011;10399;50.754;3.366;2023-06-04T05:29:22;9.95;;;3.20;;
20480;SDS011;10399;50.754;3.366;2023-06-04T05:31:50;9.50;;;4.18;;
20480;SDS011;10399;50.754;3.366;2023-06-04T05:34:17;7.68;;;3.35;;
20480;SDS011;10399;50.754;3.366;2023-06-04T05:36:45;6.50;;;3.00;;
20480;SDS011;10399;50.754;3.366;2023-06-04T05:39:12;9.15;;;3.17;;
20480;SDS011;10399;50.754;3.366;2023-06-04T05:41:40;31.88;;;3.80;;
20480;SDS011;10399;50.754;3.366;2023-06-04T05:44:07;5.88;;;3.10;;
20480;SDS011;10399;50.754;3.366;2023-06-04T05:46:34;5.80;;;2.55;;
20480;SDS011;10399;50.754;3.366;2023-06-04T05:49:01;6.57;;;3.17;;
20480;SDS011;10399;50.754;3.366;2023-06-04T05:51:28;6.75;;;3.25;;
20480;SDS011;10399;50.754;3.366;2023-06-04T05:53:56;6.07;;;2.85;;
20480;SDS011;10399;50.754;3.366;2023-06-04T05:56:23;5.82;;;3.17;;
20480;SDS011;10399;50.754;3.366;2023-06-04T05:58:52;7.75;;;3.05;;
20480;SDS011;10399;50.754;3.366;2023-06-04T06:01:19;4.57;;;2.63;;
20480;SDS011;10399;50.754;3.366;2023-06-04T06:03:46;9.10;;;3.35;;
20480;SDS011;10399;50.754;3.366;2023-06-04T06:06:14;7.28;;;3.08;;
20480;SDS011;10399;50.754;3.366;2023-06-04T06:08:41;6.47;;;2.80;;
20480;SDS011;10399;50.754;3.366;2023-06-04T06:11:08;7.88;;;3.38;;
20480;SDS011;10399;50.754;3.366;2023-06-04T06:13:36;3.85;;;2.80;;
20480;SDS011;10399;50.754;3.366;2023-06-04T06:16:04;6.15;;;2.65;;
20480;SDS011;10399;50.754;3.366;2023-06-04T06:18:32;5.88;;;3.33;;
20480;SDS011;10399;50.754;3.366;2023-06-04T06:20:59;11.45;;;3.53;;
20480;SDS011;10399;50.754;3.366;2023-06-04T06:23:26;4.38;;;2.83;;
20480;SDS011;10399;50.754;3.366;2023-06-04T06:25:53;6.38;;;3.30;;
20480;SDS011;10399;50.754;3.366;2023-06-04T06:28:20;10.95;;;3.15;;
20480;SDS011;10399;50.754;3.366;2023-06-04T06:30:49;4.35;;;2.65;;
20480;SDS011;10399;50.754;3.366;2023-06-04T06:33:16;4.95;;;2.88;;
20480;SDS011;10399;50.754;3.366;2023-06-04T06:35:47;6.97;;;3.20;;
20480;SDS011;10399;50.754;3.366;2023-06-04T06:38:14;4.50;;;3.05;;
20480;SDS011;10399;50.754;3.366;2023-06-04T06:40:44;8.82;;;3.58;;
20480;SDS011;10399;50.754;3.366;2023-06-04T06:43:12;6.47;;;2.65;;
20480;SDS011;10399;50.754;3.366;2023-06-04T06:45:39;6.13;;;2.88;;
20480;SDS011;10399;50.754;3.366;2023-06-04T06:48:06;3.97;;;2.60;;
20480;SDS011;10399;50.754;3.366;2023-06-04T06:50:33;9.88;;;3.13;;
20480;SDS011;10399;50.754;3.366;2023-06-04T06:53:02;5.90;;;2.60;;
20480;SDS011;10399;50.754;3.366;2023-06-04T06:55:29;8.25;;;2.83;;
20480;SDS011;10399;50.754;3.366;2023-06-04T06:57:57;5.38;;;2.80;;
20480;SDS011;10399;50.754;3.366;2023-06-04T07:00:25;7.78;;;2.45;;
20480;SDS011;10399;50.754;3.366;2023-06-04T07:02:54;4.80;;;2.72;;
20480;SDS011;10399;50.754;3.366;2023-06-04T07:05:22;5.88;;;2.78;;
20480;SDS011;10399;50.754;3.366;2023-06-04T07:07:49;6.05;;;2.88;;
20480;SDS011;10399;50.754;3.366;2023-06-04T07:10:16;5.50;;;2.75;;
20480;SDS011;10399;50.754;3.366;2023-06-04T07:12:43;5.90;;;2.50;;
20480;SDS011;10399;50.754;3.366;2023-06-04T07:15:10;5.60;;;2.50;;
20480;SDS011;10399;50.754;3.366;2023-06-04T07:17:40;7.38;;;2.83;;
20480;SDS011;10399;50.754;3.366;2023-06-04T07:20:07;5.38;;;2.70;;
20480;SDS011;10399;50.754;3.366;2023-06-04T07:22:35;4.72;;;2.38;;
20480;SDS011;10399;50.754;3.366;2023-06-04T07:25:03;6.13;;;2.15;;
20480;SDS011;10399;50.754;3.366;2023-06-04T07:27:30;5.97;;;2.50;;
20480;SDS011;10399;50.754;3.366;2023-06-04T07:29:57;5.25;;;2.60;;
20480;SDS011;10399;50.754;3.366;2023-06-04T07:32:25;5.47;;;2.55;;
20480;SDS011;10399;50.754;3.366;2023-06-04T07:34:52;4.28;;;2.60;;
20480;SDS011;10399;50.754;3.366;2023-06-04T07:37:19;5.90;;;2.72;;
20480;SDS011;10399;50.754;3.366;2023-06-04T07:39:47;5.05;;;2.63;;
20480;SDS011;10399;50.754;3.366;2023-06-04T07:42:13;4.50;;;2.40;;
20480;SDS011;10399;50.754;3.366;2023-06-04T07:44:41;5.25;;;2.35;;
20480;SDS011;10399;50.754;3.366;2023-06-04T07:47:08;3.95;;;2.38;;
20480;SDS011;10399;50.754;3.366;2023-06-04T07:49:35;8.15;;;2.05;;
20480;SDS011;10399;50.754;3.366;2023-06-04T07:52:19;8.32;;;2.13;;
20480;SDS011;10399;50.754;3.366;2023-06-04T07:54:46;7.57;;;2.05;;
20480;SDS011;10399;50.754;3.366;2023-06-04T07:57:18;3.95;;;2.00;;
20480;SDS011;10399;50.754;3.366;2023-06-04T07:59:46;3.10;;;2.30;;
20480;SDS011;10399;50.754;3.366;2023-06-04T08:02:13;5.13;;;2.05;;
20480;SDS011;10399;50.754;3.366;2023-06-04T08:04:41;22.25;;;2.72;;
20480;SDS011;10399;50.754;3.366;2023-06-04T08:07:10;6.22;;;2.00;;
20480;SDS011;10399;50.754;3.366;2023-06-04T08:09:37;6.20;;;2.00;;
20480;SDS011;10399;50.754;3.366;2023-06-04T08:12:07;5.85;;;2.55;;
20480;SDS011;10399;50.754;3.366;2023-06-04T08:14:36;3.70;;;1.85;;
20480;SDS011;10399;50.754;3.366;2023-06-04T08:17:04;2.60;;;1.80;;
20480;SDS011;10399;50.754;3.366;2023-06-04T08:19:31;6.78;;;2.30;;
20480;SDS011;10399;50.754;3.366;2023-06-04T08:21:58;4.60;;;1.77;;
20480;SDS011;10399;50.754;3.366;2023-06-04T08:24:26;8.07;;;1.70;;
20480;SDS011;10399;50.754;3.366;2023-06-04T08:26:55;3.35;;;1.92;;
20480;SDS011;10399;50.754;3.366;2023-06-04T08:29:22;5.88;;;1.73;;
20480;SDS011;10399;50.754;3.366;2023-06-04T08:31:50;3.55;;;1.70;;
20480;SDS011;10399;50.754;3.366;2023-06-04T08:34:18;3.13;;;1.75;;
20480;SDS011;10399;50.754;3.366;2023-06-04T08:36:45;4.60;;;2.03;;
20480;SDS011;10399;50.754;3.366;2023-06-04T08:39:13;4.03;;;1.80;;
20480;SDS011;10399;50.754;3.366;2023-06-04T08:41:44;2.72;;;1.60;;
20480;SDS011;10399;50.754;3.366;2023-06-04T08:44:22;4.53;;;2.13;;
20480;SDS011;10399;50.754;3.366;2023-06-04T08:46:52;3.72;;;2.00;;
20480;SDS011;10399;50.754;3.366;2023-06-04T08:49:23;4.05;;;1.50;;
20480;SDS011;10399;50.754;3.366;2023-06-04T08:51:52;7.80;;;2.47;;
20480;SDS011;10399;50.754;3.366;2023-06-04T08:54:19;6.65;;;1.90;;
20480;SDS011;10399;50.754;3.366;2023-06-04T08:56:46;8.02;;;1.60;;
20480;SDS011;10399;50.754;3.366;2023-06-04T08:59:15;1.88;;;1.10;;
20480;SDS011;10399;50.754;3.366;2023-06-04T09:01:43;3.17;;;1.27;;
20480;SDS011;10399;50.754;3.366;2023-06-04T09:04:11;2.28;;;1.50;;
20480;SDS011;10399;50.754;3.366;2023-06-04T09:06:39;2.50;;;1.50;;
20480;SDS011;10399;50.754;3.366;2023-06-04T09:09:08;3.92;;;1.35;;
20480;SDS011;10399;50.754;3.366;2023-06-04T09:11:41;3.28;;;1.63;;
20480;SDS011;10399;50.754;3.366;2023-06-04T09:14:13;3.75;;;1.33;;
20480;SDS011;10399;50.754;3.366;2023-06-04T09:16:43;3.10;;;1.30;;
20480;SDS011;10399;50.754;3.366;2023-06-04T09:19:11;6.65;;;1.40;;
20480;SDS011;10399;50.754;3.366;2023-06-04T09:21:51;2.05;;;1.17;;
20480;SDS011;10399;50.754;3.366;2023-06-04T09:24:43;5.05;;;1.23;;
20480;SDS011;10399;50.754;3.366;2023-06-04T09:27:16;2.38;;;1.20;;
20480;SDS011;10399;50.754;3.366;2023-06-04T09:32:22;5.18;;;1.20;;
20480;SDS011;10399;50.754;3.366;2023-06-04T09:34:50;6.97;;;1.40;;
20480;SDS011;10399;50.754;3.366;2023-06-04T09:37:19;3.20;;;1.40;;
20480;SDS011;10399;50.754;3.366;2023-06-04T09:39:55;6.47;;;1.38;;
20480;SDS011;10399;50.754;3.366;2023-06-04T09:42:22;3.92;;;1.75;;
20480;SDS011;10399;50.754;3.366;2023-06-04T09:44:50;7.65;;;1.23;;
20480;SDS011;10399;50.754;3.366;2023-06-04T09:47:17;4.03;;;1.10;;
20480;SDS011;10399;50.754;3.366;2023-06-04T09:49:45;3.30;;;1.10;;
20480;SDS011;10399;50.754;3.366;2023-06-04T09:52:13;7.70;;;1.40;;
20480;SDS011;10399;50.754;3.366;2023-06-04T09:54:40;4.30;;;1.20;;
20480;SDS011;10399;50.754;3.366;2023-06-04T09:57:15;5.57;;;1.10;;
20480;SDS011;10399;50.754;3.366;2023-06-04T09:59:45;2.75;;;1.10;;
20480;SDS011;10399;50.754;3.366;2023-06-04T10:02:21;2.03;;;1.00;;
20480;SDS011;10399;50.754;3.366;2023-06-04T10:04:54;7.43;;;1.10;;
20480;SDS011;10399;50.754;3.366;2023-06-04T10:07:25;2.92;;;1.00;;
20480;SDS011;10399;50.754;3.366;2023-06-04T10:09:53;4.00;;;1.23;;
20480;SDS011;10399;50.754;3.366;2023-06-04T10:12:35;7.10;;;1.10;;
20480;SDS011;10399;50.754;3.366;2023-06-04T10:15:10;3.83;;;1.33;;
20480;SDS011;10399;50.754;3.366;2023-06-04T10:17:39;2.53;;;1.20;;
20480;SDS011;10399;50.754;3.366;2023-06-04T10:20:07;4.38;;;1.10;;
20480;SDS011;10399;50.754;3.366;2023-06-04T10:22:35;2.33;;;1.25;;
20480;SDS011;10399;50.754;3.366;2023-06-04T10:25:06;4.43;;;1.30;;
20480;SDS011;10399;50.754;3.366;2023-06-04T10:27:35;4.53;;;1.20;;
20480;SDS011;10399;50.754;3.366;2023-06-04T10:30:04;3.75;;;1.10;;
20480;SDS011;10399;50.754;3.366;2023-06-04T10:32:31;3.13;;;1.05;;
20480;SDS011;10399;50.754;3.366;2023-06-04T10:35:02;2.70;;;1.08;;
20480;SDS011;10399;50.754;3.366;2023-06-04T10:37:31;3.28;;;1.17;;
20480;SDS011;10399;50.754;3.366;2023-06-04T10:39:58;2.58;;;1.25;;
20480;SDS011;10399;50.754;3.366;2023-06-04T10:42:25;3.17;;;1.20;;
20480;SDS011;10399;50.754;3.366;2023-06-04T10:44:53;2.20;;;1.05;;
20480;SDS011;10399;50.754;3.366;2023-06-04T10:47:27;2.03;;;1.00;;
20480;SDS011;10399;50.754;3.366;2023-06-04T10:50:08;3.45;;;1.15;;
20480;SDS011;10399;50.754;3.366;2023-06-04T10:52:52;2.13;;;1.20;;
20480;SDS011;10399;50.754;3.366;2023-06-04T10:55:20;1.50;;;1.00;;
20480;SDS011;10399;50.754;3.366;2023-06-04T10:57:54;9.65;;;1.20;;
20480;SDS011;10399;50.754;3.366;2023-06-04T11:00:33;2.17;;;1.00;;
20480;SDS011;10399;50.754;3.366;2023-06-04T11:03:05;3.15;;;1.13;;
20480;SDS011;10399;50.754;3.366;2023-06-04T11:05:37;2.92;;;1.10;;
20480;SDS011;10399;50.754;3.366;2023-06-04T11:08:07;5.38;;;1.20;;
20480;SDS011;10399;50.754;3.366;2023-06-04T11:10:36;6.57;;;1.10;;
20480;SDS011;10399;50.754;3.366;2023-06-04T11:13:05;4.50;;;1.10;;
20480;SDS011;10399;50.754;3.366;2023-06-04T11:15:43;1.10;;;1.00;;
20480;SDS011;10399;50.754;3.366;2023-06-04T11:18:15;2.35;;;1.10;;
20480;SDS011;10399;50.754;3.366;2023-06-04T11:20:48;1.80;;;1.42;;
20480;SDS011;10399;50.754;3.366;2023-06-04T11:23:17;7.15;;;1.20;;
20480;SDS011;10399;50.754;3.366;2023-06-04T11:25:44;1.75;;;1.02;;
20480;SDS011;10399;50.754;3.366;2023-06-04T11:28:15;2.05;;;1.10;;
20480;SDS011;10399;50.754;3.366;2023-06-04T11:30:55;6.93;;;1.20;;
20480;SDS011;10399;50.754;3.366;2023-06-04T11:33:30;5.47;;;1.42;;
20480;SDS011;10399;50.754;3.366;2023-06-04T11:36:07;2.35;;;1.20;;
20480;SDS011;10399;50.754;3.366;2023-06-04T11:38:35;4.85;;;1.23;;
20480;SDS011;10399;50.754;3.366;2023-06-04T11:41:02;3.40;;;0.98;;
20480;SDS011;10399;50.754;3.366;2023-06-04T11:43:31;3.22;;;1.20;;
20480;SDS011;10399;50.754;3.366;2023-06-04T11:45:59;4.35;;;1.23;;
20480;SDS011;10399;50.754;3.366;2023-06-04T11:48:36;3.33;;;1.20;;
20480;SDS011;10399;50.754;3.366;2023-06-04T11:51:07;1.83;;;1.00;;
20480;SDS011;10399;50.754;3.366;2023-06-04T11:53:36;2.63;;;1.23;;
20480;SDS011;10399;50.754;3.366;2023-06-04T11:56:04;6.20;;;1.33;;
20480;SDS011;10399;50.754;3.366;2023-06-04T11:58:32;2.25;;;1.10;;
20480;SDS011;10399;50.754;3.366;2023-06-04T12:00:59;3.55;;;1.40;;
20480;SDS011;10399;50.754;3.366;2023-06-04T12:03:39;1.88;;;1.10;;
20480;SDS011;10399;50.754;3.366;2023-06-04T12:06:14;4.93;;;1.20;;
20480;SDS011;10399;50.754;3.366;2023-06-04T12:11:29;2.72;;;1.15;;
20480;SDS011;10399;50.754;3.366;2023-06-04T12:13:59;7.43;;;1.52;;
20480;SDS011;10399;50.754;3.366;2023-06-04T12:16:27;4.72;;;1.00;;
20480;SDS011;10399;50.754;3.366;2023-06-04T12:19:10;3.15;;;1.30;;
20480;SDS011;10399;50.754;3.366;2023-06-04T12:21:39;5.55;;;1.30;;
20480;SDS011;10399;50.754;3.366;2023-06-04T12:24:11;4.57;;;1.35;;
20480;SDS011;10399;50.754;3.366;2023-06-04T12:26:40;2.00;;;1.30;;
20480;SDS011;10399;50.754;3.366;2023-06-04T12:29:13;3.05;;;1.20;;
20480;SDS011;10399;50.754;3.366;2023-06-04T12:31:42;3.15;;;1.27;;
20480;SDS011;10399;50.754;3.366;2023-06-04T12:34:13;3.22;;;1.20;;
20480;SDS011;10399;50.754;3.366;2023-06-04T12:36:40;2.28;;;1.52;;
20480;SDS011;10399;50.754;3.366;2023-06-04T12:39:09;1.80;;;1.20;;
20480;SDS011;10399;50.754;3.366;2023-06-04T12:41:36;4.68;;;1.33;;
20480;SDS011;10399;50.754;3.366;2023-06-04T12:44:03;3.17;;;1.17;;
20480;SDS011;10399;50.754;3.366;2023-06-04T12:46:31;1.95;;;1.48;;
20480;SDS011;10399;50.754;3.366;2023-06-04T12:48:58;3.88;;;1.40;;
20480;SDS011;10399;50.754;3.366;2023-06-04T12:51:25;1.95;;;1.20;;
20480;SDS011;10399;50.754;3.366;2023-06-04T12:53:52;6.13;;;1.17;;
20480;SDS011;10399;50.754;3.366;2023-06-04T12:56:19;3.13;;;1.30;;
20480;SDS011;10399;50.754;3.366;2023-06-04T12:58:46;3.13;;;1.10;;
20480;SDS011;10399;50.754;3.366;2023-06-04T13:01:14;2.08;;;1.20;;
20480;SDS011;10399;50.754;3.366;2023-06-04T13:03:42;4.18;;;1.20;;
20480;SDS011;10399;50.754;3.366;2023-06-04T13:06:09;3.47;;;1.10;;
20480;SDS011;10399;50.754;3.366;2023-06-04T13:08:36;1.65;;;1.33;;
20480;SDS011;10399;50.754;3.366;2023-06-04T13:11:04;7.05;;;1.48;;
20480;SDS011;10399;50.754;3.366;2023-06-04T13:13:32;3.90;;;1.50;;
20480;SDS011;10399;50.754;3.366;2023-06-04T13:15:59;3.90;;;1.23;;
20480;SDS011;10399;50.754;3.366;2023-06-04T13:18:26;2.13;;;1.30;;
20480;SDS011;10399;50.754;3.366;2023-06-04T13:20:53;5.65;;;1.20;;
20480;SDS011;10399;50.754;3.366;2023-06-04T13:23:22;4.55;;;1.33;;
20480;SDS011;10399;50.754;3.366;2023-06-04T13:26:03;2.35;;;1.42;;
20480;SDS011;10399;50.754;3.366;2023-06-04T13:28:30;1.92;;;1.45;;
20480;SDS011;10399;50.754;3.366;2023-06-04T13:30:57;2.35;;;1.50;;
20480;SDS011;10399;50.754;3.366;2023-06-04T13:33:24;1.48;;;1.30;;
20480;SDS011;10399;50.754;3.366;2023-06-04T13:35:51;4.75;;;1.60;;
20480;SDS011;10399;50.754;3.366;2023-06-04T13:38:19;3.42;;;1.42;;
20480;SDS011;10399;50.754;3.366;2023-06-04T13:40:46;4.20;;;1.30;;
20480;SDS011;10399;50.754;3.366;2023-06-04T13:43:13;2.85;;;1.50;;
20480;SDS011;10399;50.754;3.366;2023-06-04T13:45:40;2.28;;;1.33;;
20480;SDS011;10399;50.754;3.366;2023-06-04T13:48:07;2.00;;;1.55;;
20480;SDS011;10399;50.754;3.366;2023-06-04T13:50:34;3.35;;;1.38;;
20480;SDS011;10399;50.754;3.366;2023-06-04T13:53:01;2.75;;;1.67;;
20480;SDS011;10399;50.754;3.366;2023-06-04T13:55:28;6.13;;;1.75;;
20480;SDS011;10399;50.754;3.366;2023-06-04T13:57:56;2.95;;;1.90;;
20480;SDS011;10399;50.754;3.366;2023-06-04T14:00:23;1.88;;;1.40;;
20480;SDS011;10399;50.754;3.366;2023-06-04T14:02:51;2.47;;;1.48;;
20480;SDS011;10399;50.754;3.366;2023-06-04T14:05:19;3.72;;;1.25;;
20480;SDS011;10399;50.754;3.366;2023-06-04T14:07:46;2.25;;;1.80;;
20480;SDS011;10399;50.754;3.366;2023-06-04T14:10:13;2.55;;;1.67;;
20480;SDS011;10399;50.754;3.366;2023-06-04T14:12:40;4.57;;;1.35;;
20480;SDS011;10399;50.754;3.366;2023-06-04T14:15:07;4.25;;;1.50;;
20480;SDS011;10399;50.754;3.366;2023-06-04T14:17:35;1.25;;;1.15;;
20480;SDS011;10399;50.754;3.366;2023-06-04T14:20:03;3.47;;;1.70;;
20480;SDS011;10399;50.754;3.366;2023-06-04T14:22:37;3.30;;;1.40;;
20480;SDS011;10399;50.754;3.366;2023-06-04T14:25:05;5.15;;;1.48;;
20480;SDS011;10399;50.754;3.366;2023-06-04T14:27:34;2.90;;;1.52;;
20480;SDS011;10399;50.754;3.366;2023-06-04T14:30:02;5.07;;;1.55;;
20480;SDS011;10399;50.754;3.366;2023-06-04T14:32:30;2.60;;;1.67;;
20480;SDS011;10399;50.754;3.366;2023-06-04T14:35:00;1.48;;;1.30;;
20480;SDS011;10399;50.754;3.366;2023-06-04T14:37:27;1.50;;;1.30;;
20480;SDS011;10399;50.754;3.366;2023-06-04T14:39:54;3.70;;;1.50;;
20480;SDS011;10399;50.754;3.366;2023-06-04T14:42:21;4.28;;;1.63;;
20480;SDS011;10399;50.754;3.366;2023-06-04T14:44:48;3.63;;;1.52;;
20480;SDS011;10399;50.754;3.366;2023-06-04T14:47:15;2.88;;;1.30;;
20480;SDS011;10399;50.754;3.366;2023-06-04T14:49:42;2.65;;;1.55;;
20480;SDS011;10399;50.754;3.366;2023-06-04T14:52:09;2.33;;;1.60;;
20480;SDS011;10399;50.754;3.366;2023-06-04T14:54:37;3.60;;;1.50;;
20480;SDS011;10399;50.754;3.366;2023-06-04T14:57:04;3.50;;;1.70;;
20480;SDS011;10399;50.754;3.366;2023-06-04T14:59:31;10.80;;;1.90;;
20480;SDS011;10399;50.754;3.366;2023-06-04T15:02:00;1.90;;;1.42;;
20480;SDS011;10399;50.754;3.366;2023-06-04T15:04:28;5.75;;;1.45;;
20480;SDS011;10399;50.754;3.366;2023-06-04T15:06:55;4.68;;;1.70;;